Osteen, FL (32764)

6:04 PM EST on November 27, 2014 (GMT -0500)
Bent Oaks | Change Station
CLOSE
Current Station
Personal Weather Station
Location: Osteen, FL
Elevation: 41 ft
Nearby Weather Stations

Elev 41 ft 28.85 °N, 81.17 °W | Updated 51 seconds ago

Clear
Clear
55.9 °F
Feels Like 55.9 °F
N
0.0
Wind Variable Wind from North
Gusts 0.0 mph

Today
High -- | Low -- °F
--% Chance of Precip.
Yesterday
High -- | Low -- °F
Precip. -- in
6:57 AM 5:27 PM
Waxing Crescent, 33% visible
Pressure 30.21 in
Visibility 10.0 miles
Clouds Clear
Dew Point 41 °F
Humidity 58%
Rainfall -999.00 in
Snow Depth Not available.
UV 0 out of 12
Pollen 2.80 out of 12
Air Quality Not available.
Flu Activity Not available.
METAR KSFB 272253Z 33007KT 10SM CLR 15/03 A3021 RMK AO2 SLP230 T01500033

More Conditions Fewer Conditions

Pressure 30.21 in
Visibility 10.0 miles
Clouds Clear
Dew Point 41 °F
Humidity 58%
Rainfall -999.00 in
Snow Depth Not available.
UV 0 out of 12
Pollen 2.80 out of 12
Air Quality Not available.
Flu Activity Not available.
METAR KSFB 272253Z 33007KT 10SM CLR 15/03 A3021 RMK AO2 SLP230 T01500033

More Conditions Fewer Conditions

10-Day Weather Forecast

Almanac

Astronomy

Nov. 27, 2014 Rise Set
Actual Time
Civil Twilight
Nautical Twilight
Astronomical Twilight
Moon
Length of Visible Light
Length of Day
Tomorrow will be .
, % of the Moon is Illuminated

Today's Extremes

State Highs State Lows

Community

WunderPhotos

Upload Photos

1,774,134 photos uploaded!

WunderBlogs® & News

Nearby

Air Quality

  Air Quality AQ Index Pollutant
Not available.

Snow Depth

Station Depth Elevation

Earthquake Activity

City Distance Mag. Time & Date
Minimum magnitude displayed is 2.5.

Coastal Water Temperatures

Place Temperature

Nearby Weather Stations